sensor_id;sensor_type;location;lat;lon;timestamp;P1;durP1;ratioP1;P2;durP2;ratioP2
47659;SDS011;33403;43.608;1.458;2023-02-28T00:00:01;6.27;;;5.37;;
47659;SDS011;33403;43.608;1.458;2023-02-28T00:02:34;7.90;;;5.63;;
47659;SDS011;33403;43.608;1.458;2023-02-28T00:05:00;7.37;;;5.60;;
47659;SDS011;33403;43.608;1.458;2023-02-28T00:07:28;7.10;;;5.77;;
47659;SDS011;33403;43.608;1.458;2023-02-28T00:09:55;7.33;;;5.43;;
47659;SDS011;33403;43.608;1.458;2023-02-28T00:12:21;7.07;;;5.67;;
47659;SDS011;33403;43.608;1.458;2023-02-28T00:14:47;6.73;;;5.20;;
47659;SDS011;33403;43.608;1.458;2023-02-28T00:17:13;6.97;;;5.70;;
47659;SDS011;33403;43.608;1.458;2023-02-28T00:19:39;6.50;;;5.33;;
47659;SDS011;33403;43.608;1.458;2023-02-28T00:22:05;7.60;;;5.60;;
47659;SDS011;33403;43.608;1.458;2023-02-28T00:24:31;6.57;;;5.43;;
47659;SDS011;33403;43.608;1.458;2023-02-28T00:26:57;6.70;;;5.57;;
47659;SDS011;33403;43.608;1.458;2023-02-28T00:29:23;6.90;;;5.73;;
47659;SDS011;33403;43.608;1.458;2023-02-28T00:31:49;6.77;;;5.50;;
47659;SDS011;33403;43.608;1.458;2023-02-28T00:34:15;8.77;;;5.60;;
47659;SDS011;33403;43.608;1.458;2023-02-28T00:36:41;7.67;;;5.20;;
47659;SDS011;33403;43.608;1.458;2023-02-28T00:39:10;6.70;;;5.20;;
47659;SDS011;33403;43.608;1.458;2023-02-28T00:41:36;7.53;;;5.60;;
47659;SDS011;33403;43.608;1.458;2023-02-28T00:44:02;6.70;;;5.70;;
47659;SDS011;33403;43.608;1.458;2023-02-28T00:46:28;7.83;;;5.90;;
47659;SDS011;33403;43.608;1.458;2023-02-28T00:48:54;6.80;;;5.90;;
47659;SDS011;33403;43.608;1.458;2023-02-28T00:51:20;7.77;;;5.50;;
47659;SDS011;33403;43.608;1.458;2023-02-28T00:53:46;6.20;;;5.43;;
47659;SDS011;33403;43.608;1.458;2023-02-28T00:56:12;8.53;;;5.73;;
47659;SDS011;33403;43.608;1.458;2023-02-28T00:58:38;6.47;;;5.77;;
47659;SDS011;33403;43.608;1.458;2023-02-28T01:01:05;8.00;;;5.77;;
47659;SDS011;33403;43.608;1.458;2023-02-28T01:03:31;7.50;;;5.60;;
47659;SDS011;33403;43.608;1.458;2023-02-28T01:05:57;8.10;;;6.10;;
47659;SDS011;33403;43.608;1.458;2023-02-28T01:08:23;6.50;;;5.70;;
47659;SDS011;33403;43.608;1.458;2023-02-28T01:10:50;8.33;;;5.90;;
47659;SDS011;33403;43.608;1.458;2023-02-28T01:13:17;8.20;;;6.10;;
47659;SDS011;33403;43.608;1.458;2023-02-28T01:15:46;7.53;;;5.83;;
47659;SDS011;33403;43.608;1.458;2023-02-28T01:18:14;7.43;;;5.70;;
47659;SDS011;33403;43.608;1.458;2023-02-28T01:20:40;7.20;;;5.97;;
47659;SDS011;33403;43.608;1.458;2023-02-28T01:23:06;8.37;;;5.83;;
47659;SDS011;33403;43.608;1.458;2023-02-28T01:25:34;8.03;;;5.77;;
47659;SDS011;33403;43.608;1.458;2023-02-28T01:28:00;7.33;;;5.63;;
47659;SDS011;33403;43.608;1.458;2023-02-28T01:30:26;7.57;;;5.87;;
47659;SDS011;33403;43.608;1.458;2023-02-28T01:32:52;7.83;;;6.10;;
47659;SDS011;33403;43.608;1.458;2023-02-28T01:35:18;7.77;;;6.00;;
47659;SDS011;33403;43.608;1.458;2023-02-28T01:37:44;7.33;;;5.90;;
47659;SDS011;33403;43.608;1.458;2023-02-28T01:40:11;9.43;;;6.67;;
47659;SDS011;33403;43.608;1.458;2023-02-28T01:42:37;6.80;;;6.10;;
47659;SDS011;33403;43.608;1.458;2023-02-28T01:47:34;6.67;;;5.77;;
47659;SDS011;33403;43.608;1.458;2023-02-28T01:50:01;8.43;;;6.07;;
47659;SDS011;33403;43.608;1.458;2023-02-28T01:52:27;8.27;;;6.60;;
47659;SDS011;33403;43.608;1.458;2023-02-28T01:54:55;8.53;;;6.50;;
47659;SDS011;33403;43.608;1.458;2023-02-28T01:57:24;10.77;;;6.37;;
47659;SDS011;33403;43.608;1.458;2023-02-28T01:59:52;7.07;;;5.80;;
47659;SDS011;33403;43.608;1.458;2023-02-28T02:02:20;8.77;;;6.47;;
47659;SDS011;33403;43.608;1.458;2023-02-28T02:04:51;7.63;;;6.30;;
47659;SDS011;33403;43.608;1.458;2023-02-28T02:07:19;7.80;;;6.50;;
47659;SDS011;33403;43.608;1.458;2023-02-28T02:09:45;7.17;;;6.07;;
47659;SDS011;33403;43.608;1.458;2023-02-28T02:14:54;7.90;;;6.77;;
47659;SDS011;33403;43.608;1.458;2023-02-28T02:25:36;9.17;;;6.30;;
47659;SDS011;33403;43.608;1.458;2023-02-28T02:37:07;7.93;;;6.10;;
47659;SDS011;33403;43.608;1.458;2023-02-28T02:39:08;7.30;;;6.07;;
47659;SDS011;33403;43.608;1.458;2023-02-28T02:41:43;8.93;;;6.47;;
47659;SDS011;33403;43.608;1.458;2023-02-28T02:44:31;9.53;;;6.70;;
47659;SDS011;33403;43.608;1.458;2023-02-28T02:47:09;9.40;;;7.07;;
47659;SDS011;33403;43.608;1.458;2023-02-28T02:49:36;8.30;;;6.43;;
47659;SDS011;33403;43.608;1.458;2023-02-28T02:52:04;7.47;;;6.20;;
47659;SDS011;33403;43.608;1.458;2023-02-28T02:54:33;8.17;;;6.40;;
47659;SDS011;33403;43.608;1.458;2023-02-28T02:57:03;8.60;;;6.80;;
47659;SDS011;33403;43.608;1.458;2023-02-28T02:59:30;8.13;;;6.80;;
47659;SDS011;33403;43.608;1.458;2023-02-28T03:01:59;7.90;;;6.37;;
47659;SDS011;33403;43.608;1.458;2023-02-28T03:04:27;8.63;;;6.40;;
47659;SDS011;33403;43.608;1.458;2023-02-28T03:06:55;7.93;;;6.57;;
47659;SDS011;33403;43.608;1.458;2023-02-28T03:09:21;10.00;;;6.70;;
47659;SDS011;33403;43.608;1.458;2023-02-28T03:11:48;8.77;;;6.53;;
47659;SDS011;33403;43.608;1.458;2023-02-28T03:22:22;8.37;;;6.67;;
47659;SDS011;33403;43.608;1.458;2023-02-28T03:24:55;10.67;;;6.70;;
47659;SDS011;33403;43.608;1.458;2023-02-28T03:27:27;8.67;;;6.40;;
47659;SDS011;33403;43.608;1.458;2023-02-28T03:30:05;8.50;;;6.70;;
47659;SDS011;33403;43.608;1.458;2023-02-28T03:32:51;9.50;;;7.10;;
47659;SDS011;33403;43.608;1.458;2023-02-28T03:35:20;9.27;;;7.00;;
47659;SDS011;33403;43.608;1.458;2023-02-28T03:37:48;8.07;;;6.60;;
47659;SDS011;33403;43.608;1.458;2023-02-28T03:40:19;10.07;;;6.73;;
47659;SDS011;33403;43.608;1.458;2023-02-28T03:42:48;9.03;;;6.90;;
47659;SDS011;33403;43.608;1.458;2023-02-28T03:45:19;8.37;;;6.73;;
47659;SDS011;33403;43.608;1.458;2023-02-28T03:47:52;8.93;;;6.97;;
47659;SDS011;33403;43.608;1.458;2023-02-28T03:50:22;8.10;;;6.43;;
47659;SDS011;33403;43.608;1.458;2023-02-28T03:52:51;9.07;;;7.17;;
47659;SDS011;33403;43.608;1.458;2023-02-28T03:55:18;8.80;;;6.90;;
47659;SDS011;33403;43.608;1.458;2023-02-28T04:00:59;8.40;;;6.90;;
47659;SDS011;33403;43.608;1.458;2023-02-28T04:03:00;8.40;;;7.20;;
47659;SDS011;33403;43.608;1.458;2023-02-28T04:05:27;10.60;;;7.10;;
47659;SDS011;33403;43.608;1.458;2023-02-28T04:07:53;9.40;;;7.10;;
47659;SDS011;33403;43.608;1.458;2023-02-28T04:10:19;9.50;;;7.23;;
47659;SDS011;33403;43.608;1.458;2023-02-28T04:12:45;9.37;;;6.73;;
47659;SDS011;33403;43.608;1.458;2023-02-28T04:15:11;9.50;;;7.33;;
47659;SDS011;33403;43.608;1.458;2023-02-28T04:17:38;8.73;;;6.90;;
47659;SDS011;33403;43.608;1.458;2023-02-28T04:20:04;9.20;;;6.77;;
47659;SDS011;33403;43.608;1.458;2023-02-28T04:22:34;10.43;;;6.87;;
47659;SDS011;33403;43.608;1.458;2023-02-28T04:25:00;9.67;;;7.40;;
47659;SDS011;33403;43.608;1.458;2023-02-28T04:27:26;10.10;;;7.30;;
47659;SDS011;33403;43.608;1.458;2023-02-28T04:29:52;8.27;;;6.70;;
47659;SDS011;33403;43.608;1.458;2023-02-28T04:32:18;8.87;;;6.70;;
47659;SDS011;33403;43.608;1.458;2023-02-28T04:34:44;8.80;;;6.97;;
47659;SDS011;33403;43.608;1.458;2023-02-28T04:37:10;9.00;;;7.27;;
47659;SDS011;33403;43.608;1.458;2023-02-28T04:39:36;9.50;;;7.30;;
47659;SDS011;33403;43.608;1.458;2023-02-28T04:42:03;11.27;;;7.33;;
47659;SDS011;33403;43.608;1.458;2023-02-28T04:44:29;8.03;;;7.13;;
47659;SDS011;33403;43.608;1.458;2023-02-28T04:46:55;8.97;;;6.87;;
47659;SDS011;33403;43.608;1.458;2023-02-28T04:49:21;8.47;;;7.30;;
47659;SDS011;33403;43.608;1.458;2023-02-28T04:51:47;9.30;;;7.77;;
47659;SDS011;33403;43.608;1.458;2023-02-28T04:54:14;10.07;;;7.50;;
47659;SDS011;33403;43.608;1.458;2023-02-28T04:56:42;8.70;;;7.50;;
47659;SDS011;33403;43.608;1.458;2023-02-28T04:59:08;9.70;;;7.20;;
47659;SDS011;33403;43.608;1.458;2023-02-28T05:01:34;9.50;;;7.10;;
47659;SDS011;33403;43.608;1.458;2023-02-28T05:04:02;11.27;;;7.77;;
47659;SDS011;33403;43.608;1.458;2023-02-28T05:06:29;11.13;;;8.00;;
47659;SDS011;33403;43.608;1.458;2023-02-28T05:08:56;8.73;;;6.97;;
47659;SDS011;33403;43.608;1.458;2023-02-28T05:13:48;10.27;;;7.80;;
47659;SDS011;33403;43.608;1.458;2023-02-28T05:16:14;11.83;;;8.20;;
47659;SDS011;33403;43.608;1.458;2023-02-28T05:18:41;10.27;;;7.73;;
47659;SDS011;33403;43.608;1.458;2023-02-28T05:21:17;9.33;;;7.57;;
47659;SDS011;33403;43.608;1.458;2023-02-28T05:23:49;9.53;;;7.53;;
47659;SDS011;33403;43.608;1.458;2023-02-28T05:26:15;10.50;;;8.00;;
47659;SDS011;33403;43.608;1.458;2023-02-28T05:28:41;17.83;;;8.50;;
47659;SDS011;33403;43.608;1.458;2023-02-28T05:31:08;11.40;;;8.40;;
47659;SDS011;33403;43.608;1.458;2023-02-28T05:33:35;12.17;;;8.20;;
47659;SDS011;33403;43.608;1.458;2023-02-28T05:36:01;10.37;;;7.90;;
47659;SDS011;33403;43.608;1.458;2023-02-28T05:38:27;11.00;;;8.10;;
47659;SDS011;33403;43.608;1.458;2023-02-28T05:40:53;9.37;;;7.60;;
47659;SDS011;33403;43.608;1.458;2023-02-28T05:43:19;10.43;;;8.53;;
47659;SDS011;33403;43.608;1.458;2023-02-28T05:45:45;11.43;;;8.57;;
47659;SDS011;33403;43.608;1.458;2023-02-28T05:48:11;11.43;;;8.43;;
47659;SDS011;33403;43.608;1.458;2023-02-28T05:50:37;12.03;;;8.33;;
47659;SDS011;33403;43.608;1.458;2023-02-28T05:53:03;11.07;;;7.63;;
47659;SDS011;33403;43.608;1.458;2023-02-28T05:55:30;12.37;;;8.57;;
47659;SDS011;33403;43.608;1.458;2023-02-28T05:57:56;11.47;;;8.47;;
47659;SDS011;33403;43.608;1.458;2023-02-28T06:00:22;11.77;;;8.27;;
47659;SDS011;33403;43.608;1.458;2023-02-28T06:02:48;12.40;;;8.37;;
47659;SDS011;33403;43.608;1.458;2023-02-28T06:05:15;12.33;;;9.10;;
47659;SDS011;33403;43.608;1.458;2023-02-28T06:07:41;12.60;;;9.13;;
47659;SDS011;33403;43.608;1.458;2023-02-28T06:10:07;11.03;;;8.80;;
47659;SDS011;33403;43.608;1.458;2023-02-28T06:12:33;14.63;;;9.27;;
47659;SDS011;33403;43.608;1.458;2023-02-28T06:14:59;11.67;;;9.07;;
47659;SDS011;33403;43.608;1.458;2023-02-28T06:17:25;13.87;;;9.50;;
47659;SDS011;33403;43.608;1.458;2023-02-28T06:19:51;12.43;;;9.30;;
47659;SDS011;33403;43.608;1.458;2023-02-28T06:22:17;11.67;;;8.63;;
47659;SDS011;33403;43.608;1.458;2023-02-28T06:24:43;13.53;;;9.20;;
47659;SDS011;33403;43.608;1.458;2023-02-28T06:27:09;14.27;;;9.53;;
47659;SDS011;33403;43.608;1.458;2023-02-28T06:29:35;13.53;;;9.20;;
47659;SDS011;33403;43.608;1.458;2023-02-28T06:32:04;13.63;;;9.40;;
47659;SDS011;33403;43.608;1.458;2023-02-28T06:34:31;14.77;;;9.67;;
47659;SDS011;33403;43.608;1.458;2023-02-28T06:36:58;13.90;;;9.53;;
47659;SDS011;33403;43.608;1.458;2023-02-28T06:39:27;12.63;;;9.30;;
47659;SDS011;33403;43.608;1.458;2023-02-28T06:41:53;12.80;;;9.63;;
47659;SDS011;33403;43.608;1.458;2023-02-28T06:44:19;12.77;;;9.57;;
47659;SDS011;33403;43.608;1.458;2023-02-28T06:46:45;13.77;;;9.33;;
47659;SDS011;33403;43.608;1.458;2023-02-28T06:49:12;14.13;;;9.57;;
47659;SDS011;33403;43.608;1.458;2023-02-28T06:51:39;13.67;;;9.43;;
47659;SDS011;33403;43.608;1.458;2023-02-28T06:54:06;13.37;;;9.40;;
47659;SDS011;33403;43.608;1.458;2023-02-28T06:56:35;13.93;;;9.90;;
47659;SDS011;33403;43.608;1.458;2023-02-28T06:59:02;12.73;;;9.40;;
47659;SDS011;33403;43.608;1.458;2023-02-28T07:01:28;12.33;;;8.93;;
47659;SDS011;33403;43.608;1.458;2023-02-28T07:03:56;12.07;;;9.07;;
47659;SDS011;33403;43.608;1.458;2023-02-28T07:06:22;12.93;;;9.10;;
47659;SDS011;33403;43.608;1.458;2023-02-28T07:08:49;12.93;;;9.00;;
47659;SDS011;33403;43.608;1.458;2023-02-28T07:11:15;11.50;;;8.70;;
47659;SDS011;33403;43.608;1.458;2023-02-28T07:13:41;13.27;;;9.00;;
47659;SDS011;33403;43.608;1.458;2023-02-28T07:16:09;11.33;;;8.70;;
47659;SDS011;33403;43.608;1.458;2023-02-28T07:18:36;12.13;;;9.20;;
47659;SDS011;33403;43.608;1.458;2023-02-28T07:21:07;11.53;;;9.00;;
47659;SDS011;33403;43.608;1.458;2023-02-28T07:23:33;13.57;;;9.33;;
47659;SDS011;33403;43.608;1.458;2023-02-28T07:25:59;18.63;;;10.27;;
47659;SDS011;33403;43.608;1.458;2023-02-28T07:28:25;12.80;;;8.97;;
47659;SDS011;33403;43.608;1.458;2023-02-28T07:30:51;12.10;;;8.60;;
47659;SDS011;33403;43.608;1.458;2023-02-28T07:33:17;13.60;;;9.33;;
47659;SDS011;33403;43.608;1.458;2023-02-28T07:35:44;11.33;;;8.57;;
47659;SDS011;33403;43.608;1.458;2023-02-28T07:38:10;13.00;;;8.80;;
47659;SDS011;33403;43.608;1.458;2023-02-28T07:40:37;12.97;;;8.80;;
47659;SDS011;33403;43.608;1.458;2023-02-28T07:43:03;12.57;;;8.90;;
47659;SDS011;33403;43.608;1.458;2023-02-28T07:45:29;12.10;;;8.90;;
47659;SDS011;33403;43.608;1.458;2023-02-28T07:47:56;14.57;;;9.30;;
47659;SDS011;33403;43.608;1.458;2023-02-28T07:50:23;12.70;;;9.20;;
47659;SDS011;33403;43.608;1.458;2023-02-28T07:52:49;13.57;;;9.20;;
47659;SDS011;33403;43.608;1.458;2023-02-28T07:55:15;14.20;;;8.87;;
47659;SDS011;33403;43.608;1.458;2023-02-28T07:57:41;13.03;;;8.97;;
47659;SDS011;33403;43.608;1.458;2023-02-28T08:00:09;11.60;;;8.80;;
47659;SDS011;33403;43.608;1.458;2023-02-28T08:02:35;14.70;;;9.57;;
47659;SDS011;33403;43.608;1.458;2023-02-28T08:05:02;13.57;;;8.87;;
47659;SDS011;33403;43.608;1.458;2023-02-28T08:07:28;12.00;;;9.13;;
47659;SDS011;33403;43.608;1.458;2023-02-28T08:09:54;13.90;;;9.47;;
47659;SDS011;33403;43.608;1.458;2023-02-28T08:12:20;12.90;;;9.13;;
47659;SDS011;33403;43.608;1.458;2023-02-28T08:14:46;11.20;;;9.33;;
47659;SDS011;33403;43.608;1.458;2023-02-28T08:17:12;13.10;;;9.20;;
47659;SDS011;33403;43.608;1.458;2023-02-28T08:19:38;15.73;;;9.67;;
47659;SDS011;33403;43.608;1.458;2023-02-28T08:22:04;17.17;;;10.07;;
47659;SDS011;33403;43.608;1.458;2023-02-28T08:24:30;14.53;;;9.20;;
47659;SDS011;33403;43.608;1.458;2023-02-28T08:26:56;12.70;;;9.00;;
47659;SDS011;33403;43.608;1.458;2023-02-28T08:29:22;12.77;;;9.47;;
47659;SDS011;33403;43.608;1.458;2023-02-28T08:31:48;11.87;;;8.87;;
47659;SDS011;33403;43.608;1.458;2023-02-28T08:34:15;11.97;;;8.97;;
47659;SDS011;33403;43.608;1.458;2023-02-28T08:36:41;11.60;;;8.77;;
47659;SDS011;33403;43.608;1.458;2023-02-28T08:39:10;12.70;;;8.50;;
47659;SDS011;33403;43.608;1.458;2023-02-28T08:41:36;13.17;;;8.20;;
47659;SDS011;33403;43.608;1.458;2023-02-28T08:44:02;11.73;;;7.60;;
47659;SDS011;33403;43.608;1.458;2023-02-28T08:46:28;10.07;;;7.80;;
47659;SDS011;33403;43.608;1.458;2023-02-28T08:48:54;10.40;;;7.90;;
47659;SDS011;33403;43.608;1.458;2023-02-28T08:51:24;9.37;;;7.73;;
47659;SDS011;33403;43.608;1.458;2023-02-28T08:53:53;11.70;;;8.10;;
47659;SDS011;33403;43.608;1.458;2023-02-28T08:56:20;10.73;;;8.27;;
47659;SDS011;33403;43.608;1.458;2023-02-28T08:58:47;12.00;;;7.77;;
47659;SDS011;33403;43.608;1.458;2023-02-28T09:01:15;11.47;;;7.40;;
47659;SDS011;33403;43.608;1.458;2023-02-28T09:03:41;13.80;;;8.27;;
47659;SDS011;33403;43.608;1.458;2023-02-28T09:06:08;10.50;;;7.63;;
47659;SDS011;33403;43.608;1.458;2023-02-28T09:08:34;10.83;;;7.40;;
47659;SDS011;33403;43.608;1.458;2023-02-28T09:11:00;11.73;;;7.90;;
47659;SDS011;33403;43.608;1.458;2023-02-28T09:13:27;11.00;;;8.07;;
47659;SDS011;33403;43.608;1.458;2023-02-28T09:15:56;10.53;;;7.70;;
47659;SDS011;33403;43.608;1.458;2023-02-28T09:18:22;12.20;;;7.90;;
47659;SDS011;33403;43.608;1.458;2023-02-28T09:20:48;9.50;;;7.57;;
47659;SDS011;33403;43.608;1.458;2023-02-28T09:23:15;13.57;;;8.00;;
47659;SDS011;33403;43.608;1.458;2023-02-28T09:25:48;11.13;;;7.77;;
47659;SDS011;33403;43.608;1.458;2023-02-28T09:28:14;11.10;;;7.83;;
47659;SDS011;33403;43.608;1.458;2023-02-28T09:30:41;11.10;;;8.03;;
47659;SDS011;33403;43.608;1.458;2023-02-28T09:33:07;13.37;;;7.90;;
47659;SDS011;33403;43.608;1.458;2023-02-28T09:35:33;12.40;;;7.87;;
47659;SDS011;33403;43.608;1.458;2023-02-28T09:37:59;10.40;;;8.00;;
47659;SDS011;33403;43.608;1.458;2023-02-28T09:40:27;11.73;;;7.63;;
47659;SDS011;33403;43.608;1.458;2023-02-28T09:42:54;10.00;;;7.67;;
47659;SDS011;33403;43.608;1.458;2023-02-28T09:45:23;10.67;;;7.87;;
47659;SDS011;33403;43.608;1.458;2023-02-28T09:47:50;10.10;;;7.50;;
47659;SDS011;33403;43.608;1.458;2023-02-28T09:50:35;8.93;;;7.77;;
47659;SDS011;33403;43.608;1.458;2023-02-28T09:53:03;11.40;;;8.07;;
47659;SDS011;33403;43.608;1.458;2023-02-28T09:55:39;9.83;;;7.37;;
47659;SDS011;33403;43.608;1.458;2023-02-28T09:58:08;9.97;;;7.77;;
47659;SDS011;33403;43.608;1.458;2023-02-28T10:00:40;8.60;;;6.83;;
47659;SDS011;33403;43.608;1.458;2023-02-28T10:03:20;9.57;;;7.70;;
47659;SDS011;33403;43.608;1.458;2023-02-28T10:05:54;9.20;;;7.30;;
47659;SDS011;33403;43.608;1.458;2023-02-28T10:11:06;9.13;;;7.57;;
47659;SDS011;33403;43.608;1.458;2023-02-28T10:16:20;11.43;;;7.90;;
47659;SDS011;33403;43.608;1.458;2023-02-28T10:18:48;10.27;;;7.53;;
47659;SDS011;33403;43.608;1.458;2023-02-28T10:21:21;9.60;;;7.47;;
47659;SDS011;33403;43.608;1.458;2023-02-28T10:23:47;10.97;;;7.43;;
47659;SDS011;33403;43.608;1.458;2023-02-28T10:26:14;9.60;;;7.27;;
47659;SDS011;33403;43.608;1.458;2023-02-28T10:28:41;10.13;;;7.20;;
47659;SDS011;33403;43.608;1.458;2023-02-28T10:31:10;10.63;;;7.20;;
47659;SDS011;33403;43.608;1.458;2023-02-28T10:33:37;11.43;;;7.43;;
47659;SDS011;33403;43.608;1.458;2023-02-28T10:36:03;10.17;;;7.13;;
47659;SDS011;33403;43.608;1.458;2023-02-28T10:38:35;8.47;;;7.10;;
47659;SDS011;33403;43.608;1.458;2023-02-28T10:41:09;9.70;;;7.33;;
47659;SDS011;33403;43.608;1.458;2023-02-28T10:43:36;10.17;;;6.90;;
47659;SDS011;33403;43.608;1.458;2023-02-28T10:48:42;11.17;;;7.67;;
47659;SDS011;33403;43.608;1.458;2023-02-28T10:51:13;9.60;;;7.17;;
47659;SDS011;33403;43.608;1.458;2023-02-28T10:53:49;11.00;;;7.40;;
47659;SDS011;33403;43.608;1.458;2023-02-28T10:56:25;9.30;;;7.17;;
47659;SDS011;33403;43.608;1.458;2023-02-28T11:03:49;8.57;;;6.70;;
47659;SDS011;33403;43.608;1.458;2023-02-28T11:11:17;11.43;;;7.50;;
47659;SDS011;33403;43.608;1.458;2023-02-28T11:13:45;11.97;;;7.83;;
47659;SDS011;33403;43.608;1.458;2023-02-28T11:16:12;10.73;;;7.93;;
47659;SDS011;33403;43.608;1.458;2023-02-28T11:21:04;12.30;;;8.07;;
47659;SDS011;33403;43.608;1.458;2023-02-28T11:23:32;10.53;;;8.10;;
47659;SDS011;33403;43.608;1.458;2023-02-28T11:26:00;10.60;;;7.80;;
47659;SDS011;33403;43.608;1.458;2023-02-28T11:28:28;12.03;;;7.97;;
47659;SDS011;33403;43.608;1.458;2023-02-28T11:31:15;9.93;;;7.70;;
47659;SDS011;33403;43.608;1.458;2023-02-28T11:38:41;11.30;;;8.30;;
47659;SDS011;33403;43.608;1.458;2023-02-28T11:41:19;11.07;;;7.77;;
47659;SDS011;33403;43.608;1.458;2023-02-28T11:46:31;10.73;;;7.23;;
47659;SDS011;33403;43.608;1.458;2023-02-28T11:56:47;10.60;;;8.10;;
47659;SDS011;33403;43.608;1.458;2023-02-28T12:12:10;8.47;;;6.67;;
47659;SDS011;33403;43.608;1.458;2023-02-28T12:20:12;8.43;;;6.60;;
47659;SDS011;33403;43.608;1.458;2023-02-28T12:27:36;10.77;;;7.30;;
47659;SDS011;33403;43.608;1.458;2023-02-28T12:30:04;9.00;;;6.97;;
47659;SDS011;33403;43.608;1.458;2023-02-28T12:32:33;9.57;;;7.07;;
47659;SDS011;33403;43.608;1.458;2023-02-28T12:35:04;8.93;;;6.90;;
47659;SDS011;33403;43.608;1.458;2023-02-28T12:40:05;9.20;;;6.97;;
47659;SDS011;33403;43.608;1.458;2023-02-28T12:42:33;10.60;;;7.60;;
47659;SDS011;33403;43.608;1.458;2023-02-28T12:45:04;9.37;;;7.70;;
47659;SDS011;33403;43.608;1.458;2023-02-28T12:47:34;8.70;;;6.97;;
47659;SDS011;33403;43.608;1.458;2023-02-28T12:50:02;11.43;;;7.43;;
47659;SDS011;33403;43.608;1.458;2023-02-28T12:52:37;10.43;;;7.30;;
47659;SDS011;33403;43.608;1.458;2023-02-28T12:55:08;9.23;;;7.20;;
47659;SDS011;33403;43.608;1.458;2023-02-28T12:57:42;9.43;;;7.17;;
47659;SDS011;33403;43.608;1.458;2023-02-28T13:00:16;9.83;;;7.40;;
47659;SDS011;33403;43.608;1.458;2023-02-28T13:07:40;9.80;;;6.97;;
47659;SDS011;33403;43.608;1.458;2023-02-28T13:10:08;9.80;;;7.13;;
47659;SDS011;33403;43.608;1.458;2023-02-28T13:12:35;9.50;;;7.00;;
47659;SDS011;33403;43.608;1.458;2023-02-28T13:15:07;9.50;;;6.80;;
47659;SDS011;33403;43.608;1.458;2023-02-28T13:17:38;11.30;;;7.60;;
47659;SDS011;33403;43.608;1.458;2023-02-28T13:20:13;12.30;;;7.33;;
47659;SDS011;33403;43.608;1.458;2023-02-28T13:22:47;9.53;;;6.90;;
47659;SDS011;33403;43.608;1.458;2023-02-28T13:27:49;10.20;;;7.30;;
47659;SDS011;33403;43.608;1.458;2023-02-28T13:44:14;12.57;;;7.00;;
47659;SDS011;33403;43.608;1.458;2023-02-28T13:51:48;8.80;;;6.07;;
47659;SDS011;33403;43.608;1.458;2023-02-28T13:59:29;7.33;;;5.50;;
47659;SDS011;33403;43.608;1.458;2023-02-28T14:06:54;7.30;;;5.80;;
47659;SDS011;33403;43.608;1.458;2023-02-28T14:09:31;6.83;;;5.50;;
47659;SDS011;33403;43.608;1.458;2023-02-28T14:12:50;7.37;;;5.73;;
47659;SDS011;33403;43.608;1.458;2023-02-28T14:17:14;8.70;;;6.50;;
47659;SDS011;33403;43.608;1.458;2023-02-28T14:19:41;8.43;;;6.07;;
47659;SDS011;33403;43.608;1.458;2023-02-28T14:30:42;9.70;;;6.27;;
47659;SDS011;33403;43.608;1.458;2023-02-28T14:33:42;7.83;;;6.63;;
47659;SDS011;33403;43.608;1.458;2023-02-28T14:38:32;8.97;;;6.67;;
47659;SDS011;33403;43.608;1.458;2023-02-28T14:41:00;8.37;;;6.60;;
47659;SDS011;33403;43.608;1.458;2023-02-28T14:43:28;8.77;;;6.20;;
47659;SDS011;33403;43.608;1.458;2023-02-28T14:45:58;7.07;;;6.07;;
47659;SDS011;33403;43.608;1.458;2023-02-28T14:48:24;9.60;;;6.50;;
47659;SDS011;33403;43.608;1.458;2023-02-28T14:50:55;7.13;;;5.80;;
47659;SDS011;33403;43.608;1.458;2023-02-28T14:53:22;7.10;;;5.90;;
47659;SDS011;33403;43.608;1.458;2023-02-28T14:55:50;9.30;;;5.80;;
47659;SDS011;33403;43.608;1.458;2023-02-28T14:58:33;8.27;;;5.93;;
47659;SDS011;33403;43.608;1.458;2023-02-28T15:01:00;8.43;;;5.70;;
47659;SDS011;33403;43.608;1.458;2023-02-28T15:03:34;7.43;;;5.47;;
47659;SDS011;33403;43.608;1.458;2023-02-28T15:06:04;6.47;;;5.77;;
47659;SDS011;33403;43.608;1.458;2023-02-28T15:08:31;7.37;;;5.67;;
47659;SDS011;33403;43.608;1.458;2023-02-28T15:11:02;7.67;;;5.77;;
47659;SDS011;33403;43.608;1.458;2023-02-28T15:15:59;8.10;;;5.60;;
47659;SDS011;33403;43.608;1.458;2023-02-28T15:20:52;8.63;;;5.40;;
47659;SDS011;33403;43.608;1.458;2023-02-28T15:23:19;8.00;;;5.83;;
47659;SDS011;33403;43.608;1.458;2023-02-28T15:25:46;7.03;;;5.30;;
47659;SDS011;33403;43.608;1.458;2023-02-28T15:28:14;7.37;;;5.87;;
47659;SDS011;33403;43.608;1.458;2023-02-28T15:30:50;8.33;;;5.67;;
47659;SDS011;33403;43.608;1.458;2023-02-28T15:35:42;7.87;;;5.40;;
47659;SDS011;33403;43.608;1.458;2023-02-28T15:38:14;8.07;;;5.70;;
47659;SDS011;33403;43.608;1.458;2023-02-28T15:40:41;7.27;;;5.57;;
47659;SDS011;33403;43.608;1.458;2023-02-28T15:43:18;9.47;;;5.60;;
47659;SDS011;33403;43.608;1.458;2023-02-28T15:45:45;8.93;;;5.50;;
47659;SDS011;33403;43.608;1.458;2023-02-28T15:48:27;6.30;;;5.20;;
47659;SDS011;33403;43.608;1.458;2023-02-28T15:51:16;6.43;;;5.23;;
47659;SDS011;33403;43.608;1.458;2023-02-28T15:56:28;7.60;;;5.83;;
47659;SDS011;33403;43.608;1.458;2023-02-28T15:58:55;8.90;;;5.93;;
47659;SDS011;33403;43.608;1.458;2023-02-28T16:01:24;6.37;;;5.43;;
47659;SDS011;33403;43.608;1.458;2023-02-28T16:03:51;8.20;;;5.63;;
47659;SDS011;33403;43.608;1.458;2023-02-28T16:08:49;8.27;;;5.60;;
47659;SDS011;33403;43.608;1.458;2023-02-28T16:11:16;7.07;;;5.63;;
47659;SDS011;33403;43.608;1.458;2023-02-28T16:13:42;7.77;;;5.63;;
47659;SDS011;33403;43.608;1.458;2023-02-28T16:16:13;8.77;;;6.07;;
47659;SDS011;33403;43.608;1.458;2023-02-28T16:18:40;6.90;;;5.57;;
47659;SDS011;33403;43.608;1.458;2023-02-28T16:21:06;7.33;;;5.57;;
47659;SDS011;33403;43.608;1.458;2023-02-28T16:23:32;6.83;;;5.43;;
47659;SDS011;33403;43.608;1.458;2023-02-28T16:25:58;7.83;;;5.90;;
47659;SDS011;33403;43.608;1.458;2023-02-28T16:28:25;8.50;;;5.53;;
47659;SDS011;33403;43.608;1.458;2023-02-28T16:30:55;8.33;;;5.70;;
47659;SDS011;33403;43.608;1.458;2023-02-28T16:33:21;6.80;;;5.83;;
47659;SDS011;33403;43.608;1.458;2023-02-28T16:35:47;7.63;;;5.83;;
47659;SDS011;33403;43.608;1.458;2023-02-28T16:38:13;8.67;;;6.03;;
47659;SDS011;33403;43.608;1.458;2023-02-28T16:40:39;8.47;;;5.80;;
47659;SDS011;33403;43.608;1.458;2023-02-28T16:43:07;9.50;;;5.87;;
47659;SDS011;33403;43.608;1.458;2023-02-28T16:45:35;9.23;;;6.10;;
47659;SDS011;33403;43.608;1.458;2023-02-28T16:48:01;9.73;;;6.30;;
47659;SDS011;33403;43.608;1.458;2023-02-28T16:50:29;8.27;;;6.23;;
47659;SDS011;33403;43.608;1.458;2023-02-28T16:52:57;9.83;;;6.40;;
47659;SDS011;33403;43.608;1.458;2023-02-28T16:55:24;10.47;;;7.17;;
47659;SDS011;33403;43.608;1.458;2023-02-28T16:57:52;11.53;;;6.47;;
47659;SDS011;33403;43.608;1.458;2023-02-28T17:00:18;11.63;;;7.47;;
47659;SDS011;33403;43.608;1.458;2023-02-28T17:02:44;13.63;;;7.07;;
47659;SDS011;33403;43.608;1.458;2023-02-28T17:05:11;9.07;;;6.50;;
47659;SDS011;33403;43.608;1.458;2023-02-28T17:07:38;9.57;;;6.90;;
47659;SDS011;33403;43.608;1.458;2023-02-28T17:12:36;8.43;;;6.30;;
47659;SDS011;33403;43.608;1.458;2023-02-28T17:15:02;9.97;;;6.77;;
47659;SDS011;33403;43.608;1.458;2023-02-28T17:17:28;9.50;;;6.67;;
47659;SDS011;33403;43.608;1.458;2023-02-28T17:19:55;8.30;;;6.67;;
47659;SDS011;33403;43.608;1.458;2023-02-28T17:22:21;8.97;;;6.70;;
47659;SDS011;33403;43.608;1.458;2023-02-28T17:24:47;8.80;;;6.27;;
47659;SDS011;33403;43.608;1.458;2023-02-28T17:27:13;8.90;;;6.87;;
47659;SDS011;33403;43.608;1.458;2023-02-28T17:29:39;9.23;;;6.80;;